Time;durP1;ratioP1;P1;durP2;ratioP2;P2;SDS_P1;SDS_P2;PMS_P1;PMS_P2;Temp;Humidity;BMP_temperature;BMP_pressure;BME280_temperature;BME280_humidity;BME280_pressure;Samples;Min_cycle;Max_cycle;Signal;HPM_P1;HPM_P2
2022/09/20 00:00:21;;;;;;;5.47;1.57;;;;;10.10;101808.00;;;;13041910;22;20181;-75
2022/09/20 00:05:22;;;;;;;4.93;1.50;;;;;10.00;101811.00;;;;13040946;22;20274;-74
2022/09/20 00:10:23;;;;;;;7.27;1.60;;;;;9.90;101814.00;;;;13036598;22;20465;-74
2022/09/20 00:15:24;;;;;;;4.07;1.53;;;;;9.80;101810.00;;;;13015495;22;20174;-74
2022/09/20 00:20:26;;;;;;;2.50;1.50;;;;;9.70;101798.00;;;;13015123;22;20198;-74
2022/09/20 00:25:27;;;;;;;3.77;1.63;;;;;9.70;101798.00;;;;13015264;22;20714;-75
2022/09/20 00:30:28;;;;;;;4.07;1.33;;;;;9.70;101804.00;;;;13015276;22;20889;-75
2022/09/20 00:35:30;;;;;;;7.80;1.57;;;;;9.70;101800.00;;;;13086068;22;20224;-74
2022/09/20 00:40:31;;;;;;;8.87;1.70;;;;;9.60;101810.00;;;;13088135;22;20292;-74
2022/09/20 00:45:33;;;;;;;5.30;1.73;;;;;9.50;101802.00;;;;13087670;22;20700;-75
2022/09/20 00:51:00;;;;;;;4.50;1.63;;;;;9.50;101798.00;;;;13088766;22;20160;-75
2022/09/20 00:56:08;;;;;;;3.43;1.83;;;;;9.50;101807.00;;;;13061212;22;20987;-75
2022/09/20 01:01:09;;;;;;;6.67;2.27;;;;;9.50;101799.00;;;;13013707;22;20168;-74
2022/09/20 01:06:14;;;;;;;3.40;2.23;;;;;9.50;101789.00;;;;13039739;22;20199;-73
2022/09/20 01:11:15;;;;;;;8.00;2.50;;;;;9.50;101788.00;;;;13087001;22;20612;-73
2022/09/20 01:16:18;;;;;;;6.17;2.50;;;;;9.40;101785.00;;;;13015548;22;20520;-73
2022/09/20 01:21:20;;;;;;;5.57;2.43;;;;;9.40;101785.00;;;;13040982;22;20661;-73
2022/09/20 01:26:51;;;;;;;4.00;2.63;;;;;9.40;101780.00;;;;13037525;22;20203;-73
2022/09/20 01:31:55;;;;;;;6.10;2.47;;;;;9.40;101794.00;;;;13087199;22;20503;-73
2022/09/20 01:36:59;;;;;;;6.63;2.60;;;;;9.50;101791.00;;;;13086753;22;20191;-73
2022/09/20 01:42:08;;;;;;;10.33;3.53;;;;;9.60;101789.00;;;;13013651;22;20253;-73
2022/09/20 01:47:38;;;;;;;6.17;3.37;;;;;9.70;101793.00;;;;13061601;22;20188;-73
2022/09/20 01:53:04;;;;;;;7.00;2.80;;;;;9.80;101794.00;;;;13039730;22;20181;-73
2022/09/20 01:58:19;;;;;;;7.67;2.90;;;;;9.90;101796.00;;;;13034900;22;20187;-73
2022/09/20 02:03:51;;;;;;;6.20;2.90;;;;;10.10;101795.00;;;;13014205;22;20674;-73
2022/09/20 02:09:11;;;;;;;6.57;2.70;;;;;10.20;101804.00;;;;12989024;22;20202;-73
2022/09/20 02:14:30;;;;;;;4.37;2.43;;;;;10.40;101813.00;;;;13088230;22;20275;-73
2022/09/20 02:20:14;;;;;;;3.67;2.70;;;;;10.50;101805.00;;;;13035838;22;20170;-73
2022/09/20 02:25:30;;;;;;;8.13;4.10;;;;;10.60;101809.00;;;;13053659;22;20765;-73
2022/09/20 02:30:58;;;;;;;5.77;3.43;;;;;10.70;101801.00;;;;13061184;22;20257;-73
2022/09/20 02:36:24;;;;;;;9.30;3.33;;;;;10.70;101796.00;;;;13040032;22;20254;-73
2022/09/20 02:41:39;;;;;;;7.10;2.87;;;;;10.80;101804.00;;;;13036119;22;20170;-73
2022/09/20 02:46:57;;;;;;;9.27;3.33;;;;;10.80;101809.00;;;;13115232;22;20191;-73
2022/09/20 02:52:06;;;;;;;5.57;2.97;;;;;10.80;101801.00;;;;13040220;22;20621;-73
2022/09/20 02:57:25;;;;;;;6.40;3.30;;;;;10.90;101810.00;;;;13066280;22;20613;-73
2022/09/20 03:02:50;;;;;;;4.93;3.40;;;;;10.90;101803.00;;;;13060987;22;20594;-73
2022/09/20 03:08:14;;;;;;;9.47;3.37;;;;;10.90;101790.00;;;;13113684;22;20202;-73
2022/09/20 03:13:50;;;;;;;9.90;3.70;;;;;11.00;101792.00;;;;13090194;22;20270;-73
2022/09/20 03:19:11;;;;;;;10.90;4.03;;;;;11.00;101790.00;;;;13114762;22;20191;-73
2022/09/20 03:24:34;;;;;;;7.97;3.63;;;;;11.00;101800.00;;;;13037612;22;20692;-74
2022/09/20 03:29:59;;;;;;;10.30;3.67;;;;;11.00;101801.00;;;;13089879;22;20163;-73
2022/09/20 03:35:33;;;;;;;10.53;4.00;;;;;11.00;101790.00;;;;13088255;22;20172;-73
2022/09/20 03:40:59;;;;;;;9.50;3.73;;;;;11.00;101786.00;;;;13015737;22;20179;-73
2022/09/20 03:46:43;;;;;;;8.60;4.13;;;;;11.00;101793.00;;;;13064858;22;20219;-73
2022/09/20 03:52:02;;;;;;;5.93;3.90;;;;;11.10;101799.00;;;;12956473;22;20251;-73
2022/09/20 03:57:16;;;;;;;8.43;3.67;;;;;11.10;101790.00;;;;13040557;22;20229;-73
2022/09/20 04:02:37;;;;;;;7.67;4.07;;;;;11.10;101795.00;;;;13037822;22;20191;-73
2022/09/20 04:07:42;;;;;;;10.30;4.03;;;;;11.00;101786.00;;;;12992608;22;20191;-73
2022/09/20 04:13:17;;;;;;;8.60;4.13;;;;;10.90;101788.00;;;;13017684;22;20202;-73
2022/09/20 04:19:02;;;;;;;10.67;3.43;;;;;10.70;101794.00;;;;13040453;22;20175;-73
2022/09/20 04:24:16;;;;;;;8.67;3.80;;;;;10.50;101783.00;;;;13038272;22;20190;-73
2022/09/20 04:29:25;;;;;;;6.20;3.63;;;;;10.30;101775.00;;;;13063838;22;20779;-73
2022/09/20 04:40:18;;;;;;;14.70;4.27;;;;;9.90;101795.00;;;;13039603;22;20256;-73
2022/09/20 04:45:23;;;;;;;6.73;3.53;;;;;9.80;101798.00;;;;13063924;22;20286;-73
2022/09/20 04:50:40;;;;;;;9.40;3.23;;;;;9.80;101800.00;;;;13012588;22;20507;-73
2022/09/20 04:55:51;;;;;;;9.40;4.23;;;;;9.80;101812.00;;;;13031543;22;20206;-73
2022/09/20 05:01:18;;;;;;;7.67;4.13;;;;;9.80;101827.00;;;;13012907;22;20171;-73
2022/09/20 05:06:47;;;;;;;8.83;4.43;;;;;9.80;101817.00;;;;12988253;22;20593;-73
2022/09/20 05:12:15;;;;;;;16.47;5.33;;;;;9.70;101827.00;;;;13064779;22;20195;-73
2022/09/20 05:17:54;;;;;;;12.07;5.17;;;;;9.60;101814.00;;;;12986187;22;20178;-73
2022/09/20 05:23:25;;;;;;;10.27;4.97;;;;;9.50;101822.00;;;;12990488;22;20198;-73
2022/09/20 05:28:35;;;;;;;11.40;5.27;;;;;9.40;101825.00;;;;13061856;22;20191;-73
2022/09/20 05:34:03;;;;;;;9.37;4.90;;;;;9.30;101826.00;;;;12991152;22;20203;-73
2022/09/20 05:39:10;;;;;;;14.60;6.10;;;;;9.30;101835.00;;;;13014343;22;20178;-73
2022/09/20 05:44:22;;;;;;;14.13;5.80;;;;;9.30;101842.00;;;;13114145;22;20218;-73
2022/09/20 05:49:40;;;;;;;16.23;5.73;;;;;9.30;101839.00;;;;13016463;22;21182;-73
2022/09/20 05:55:00;;;;;;;10.73;5.27;;;;;9.40;101832.00;;;;13014135;22;20179;-73
2022/09/20 06:00:18;;;;;;;10.83;5.20;;;;;9.50;101834.00;;;;13113027;22;20614;-73
2022/09/20 06:06:04;;;;;;;13.67;5.67;;;;;9.70;101832.00;;;;13037580;22;20199;-73
2022/09/20 06:11:32;;;;;;;12.53;5.60;;;;;9.80;101826.00;;;;13029472;22;20904;-73
2022/09/20 06:16:47;;;;;;;13.67;5.77;;;;;10.20;101834.00;;;;13014636;22;20717;-73
2022/09/20 06:21:54;;;;;;;12.17;6.77;;;;;10.40;101835.00;;;;13038742;22;20210;-73
2022/09/20 06:27:01;;;;;;;13.00;6.07;;;;;10.50;101844.00;;;;13061450;22;20192;-73
2022/09/20 06:32:03;;;;;;;10.37;5.50;;;;;10.40;101843.00;;;;13060802;22;20163;-73
2022/09/20 06:43:15;;;;;;;12.33;5.77;;;;;11.10;101837.00;;;;12889665;22;20213;-73
2022/09/20 06:48:18;;;;;;;12.33;6.63;;;;;11.70;101841.00;;;;13087512;22;20776;-73
2022/09/20 06:53:27;;;;;;;8.63;5.20;;;;;12.00;101840.00;;;;13038085;22;20202;-73
2022/09/20 06:58:28;;;;;;;10.73;5.67;;;;;12.30;101841.00;;;;13036718;22;20511;-73
2022/09/20 07:03:30;;;;;;;8.50;5.60;;;;;12.60;101846.00;;;;13013716;22;20221;-73
2022/09/20 07:08:32;;;;;;;8.10;4.47;;;;;12.90;101841.00;;;;13014237;22;20686;-74
2022/09/20 07:13:33;;;;;;;10.90;5.00;;;;;13.10;101837.00;;;;13111021;22;20495;-74
2022/09/20 07:18:34;;;;;;;8.40;4.97;;;;;13.10;101841.00;;;;13012288;22;20412;-73
2022/09/20 07:23:35;;;;;;;12.07;4.77;;;;;13.20;101844.00;;;;13083253;22;20163;-73
2022/09/20 07:28:36;;;;;;;13.17;5.43;;;;;13.40;101846.00;;;;13037449;22;20610;-73
2022/09/20 07:33:38;;;;;;;8.30;5.07;;;;;13.70;101847.00;;;;13037019;22;20163;-73
2022/09/20 07:38:40;;;;;;;11.57;5.00;;;;;13.80;101848.00;;;;13038436;22;20176;-73
2022/09/20 07:43:42;;;;;;;11.30;4.80;;;;;14.10;101857.00;;;;13032994;22;20163;-74
2022/09/20 07:48:43;;;;;;;13.60;5.40;;;;;14.60;101870.00;;;;13032043;22;20210;-73
2022/09/20 07:53:44;;;;;;;7.60;4.80;;;;;14.80;101872.00;;;;13058396;22;20159;-73
2022/09/20 07:58:46;;;;;;;16.00;5.17;;;;;15.50;101883.00;;;;13010821;22;20164;-73
2022/09/20 08:03:53;;;;;;;11.82;4.72;;;;;15.80;101898.00;;;;13114205;22;20506;-73
2022/09/20 08:08:54;;;;;;;14.88;4.72;;;;;15.60;101898.00;;;;13037610;22;20191;-73
2022/09/20 08:13:58;;;;;;;11.45;5.30;;;;;15.30;101908.00;;;;13039164;22;20175;-74
2022/09/20 08:19:17;;;;;;;9.75;4.93;;;;;15.10;101911.00;;;;13038696;22;20199;-73
2022/09/20 08:24:19;;;;;;;10.70;5.75;;;;;14.70;101918.00;;;;13056971;22;20191;-74
2022/09/20 08:29:20;;;;;;;10.87;5.60;;;;;14.50;101915.00;;;;13113672;22;20163;-74
2022/09/20 08:34:21;;;;;;;13.00;6.00;;;;;14.80;101923.00;;;;13113760;22;20871;-74
2022/09/20 08:39:23;;;;;;;9.20;5.67;;;;;15.00;101926.00;;;;13040581;22;20164;-74
2022/09/20 08:44:53;;;;;;;11.63;5.90;;;;;15.20;101922.00;;;;13039558;22;20179;-74
2022/09/20 08:50:04;;;;;;;11.57;5.45;;;;;15.50;101929.00;;;;13057111;22;20657;-74
2022/09/20 08:55:26;;;;;;;12.48;4.15;;;;;15.80;101936.00;;;;13016867;22;20202;-74
2022/09/20 09:00:31;;;;;;;10.77;4.57;;;;;16.30;101931.00;;;;13037637;22;20254;-74
2022/09/20 09:05:36;;;;;;;10.13;4.45;;;;;17.10;101933.00;;;;13038318;22;20222;-74
2022/09/20 09:10:39;;;;;;;11.25;4.22;;;;;17.90;101942.00;;;;13011467;22;20601;-74
2022/09/20 09:15:47;;;;;;;9.05;4.10;;;;;17.20;101943.00;;;;13082878;22;20160;-74
2022/09/20 09:20:50;;;;;;;8.18;3.63;;;;;17.00;101953.00;;;;13012637;22;20242;-74
2022/09/20 09:25:53;;;;;;;5.82;3.35;;;;;17.00;101954.00;;;;13087005;22;20231;-74
2022/09/20 09:31:21;;;;;;;5.53;3.08;;;;;17.40;101947.00;;;;13085686;22;20164;-74
2022/09/20 09:36:24;;;;;;;7.88;3.10;;;;;18.30;101937.00;;;;13039683;22;20197;-74
2022/09/20 09:41:34;;;;;;;5.70;2.30;;;;;18.70;101938.00;;;;13036685;22;20198;-74
2022/09/20 09:46:38;;;;;;;7.65;2.75;;;;;20.20;101943.00;;;;13064494;22;20196;-74
2022/09/20 09:51:42;;;;;;;7.05;3.05;;;;;19.90;101954.00;;;;13039264;22;20550;-74
2022/09/20 09:57:10;;;;;;;5.55;2.50;;;;;19.60;101957.00;;;;13081374;22;20160;-74
2022/09/20 10:02:42;;;;;;;6.57;2.13;;;;;20.20;101955.00;;;;13053552;22;20179;-74
2022/09/20 10:07:50;;;;;;;7.40;1.98;;;;;20.30;101958.00;;;;13111500;22;20264;-74
2022/09/20 10:13:18;;;;;;;6.70;2.53;;;;;19.70;101955.00;;;;13059432;22;20175;-74
2022/09/20 10:18:44;;;;;;;6.63;2.88;;;;;18.80;101955.00;;;;13111714;22;20550;-74
2022/09/20 10:24:07;;;;;;;8.68;3.17;;;;;18.40;101948.00;;;;13062661;22;20171;-74
2022/09/20 10:29:27;;;;;;;4.20;1.95;;;;;18.40;101951.00;;;;13035775;22;20194;-74
2022/09/20 10:34:55;;;;;;;9.32;2.30;;;;;18.60;101954.00;;;;13062332;22;20187;-74
2022/09/20 10:40:20;;;;;;;5.50;2.83;;;;;19.00;101949.00;;;;13009311;22;20822;-74
2022/09/20 10:45:39;;;;;;;6.00;2.40;;;;;19.10;101947.00;;;;13023327;22;20744;-74
2022/09/20 10:51:35;;;;;;;8.73;2.05;;;;;19.60;101940.00;;;;13057766;22;20444;-74
2022/09/20 10:56:45;;;;;;;6.05;1.80;;;;;20.70;101946.00;;;;13084286;22;20163;-74
2022/09/20 11:02:01;;;;;;;8.20;2.55;;;;;20.80;101947.00;;;;13059787;22;20769;-74
2022/09/20 11:07:25;;;;;;;8.25;1.70;;;;;21.00;101949.00;;;;13030696;22;20646;-74
2022/09/20 11:12:38;;;;;;;5.15;1.50;;;;;21.10;101942.00;;;;13085226;22;20194;-74
2022/09/20 11:18:02;;;;;;;11.05;1.60;;;;;20.70;101946.00;;;;13037494;22;20412;-74
2022/09/20 11:23:26;;;;;;;7.78;1.42;;;;;20.10;101957.00;;;;13084779;22;20561;-74
2022/09/20 11:28:37;;;;;;;5.93;2.20;;;;;19.40;101955.00;;;;13061362;22;20207;-74
2022/09/20 11:33:48;;;;;;;7.10;1.60;;;;;18.50;101955.00;;;;13088172;22;20163;-74
2022/09/20 11:38:55;;;;;;;5.88;2.10;;;;;17.90;101962.00;;;;13040952;22;20561;-74
2022/09/20 11:44:06;;;;;;;4.78;1.75;;;;;17.50;101961.00;;;;13063491;22;20178;-75
2022/09/20 11:49:16;;;;;;;3.58;1.30;;;;;17.40;101958.00;;;;13038095;22;20208;-74
2022/09/20 11:54:56;;;;;;;8.02;1.65;;;;;17.80;101961.00;;;;13086649;22;20250;-74
2022/09/20 12:00:02;;;;;;;7.22;1.70;;;;;18.20;101947.00;;;;13012972;22;20255;-75
2022/09/20 12:05:32;;;;;;;7.28;1.40;;;;;18.60;101943.00;;;;13062071;22;20263;-75
2022/09/20 12:10:37;;;;;;;5.00;1.60;;;;;19.40;101935.00;;;;13011616;22;20195;-74
2022/09/20 12:15:39;;;;;;;7.70;2.15;;;;;20.00;101935.00;;;;13065130;22;20224;-75
2022/09/20 12:20:43;;;;;;;7.80;1.38;;;;;20.80;101928.00;;;;13014929;22;20160;-75
2022/09/20 12:26:01;;;;;;;7.97;1.25;;;;;21.00;101926.00;;;;13060161;22;20245;-75
2022/09/20 12:31:18;;;;;;;6.25;1.08;;;;;20.90;101925.00;;;;13032461;22;20159;-75
2022/09/20 12:36:19;;;;;;;8.32;1.08;;;;;20.60;101925.00;;;;13011394;22;20167;-75
2022/09/20 12:41:21;;;;;;;5.03;0.88;;;;;20.40;101919.00;;;;13084028;22;20167;-75
2022/09/20 12:46:38;;;;;;;3.22;0.90;;;;;20.20;101925.00;;;;13064796;22;20217;-75
2022/09/20 12:57:36;;;;;;;3.15;1.50;;;;;20.40;101928.00;;;;13002424;22;20262;-75
2022/09/20 13:02:51;;;;;;;3.10;1.20;;;;;20.20;101923.00;;;;13036908;22;20175;-75
2022/09/20 13:07:59;;;;;;;4.40;1.45;;;;;19.90;101918.00;;;;13086753;22;20197;-74
2022/09/20 13:13:32;;;;;;;1.90;0.93;;;;;19.80;101920.00;;;;13037607;22;20168;-75
2022/09/20 13:18:35;;;;;;;5.88;1.50;;;;;20.00;101914.00;;;;13088537;22;20246;-75
2022/09/20 13:23:45;;;;;;;3.58;1.10;;;;;20.00;101919.00;;;;13039572;22;20508;-75
2022/09/20 13:28:51;;;;;;;2.88;1.20;;;;;20.50;101919.00;;;;13084507;22;20183;-74
2022/09/20 13:33:53;;;;;;;1.58;1.00;;;;;20.80;101912.00;;;;13039024;22;20619;-74
2022/09/20 13:38:57;;;;;;;6.65;1.40;;;;;21.00;101908.00;;;;13061244;22;20159;-75
2022/09/20 13:43:59;;;;;;;6.93;1.30;;;;;20.50;101910.00;;;;13038551;22;20258;-75
2022/09/20 13:49:16;;;;;;;8.43;1.52;;;;;20.00;101910.00;;;;13037428;22;20182;-75
2022/09/20 13:54:29;;;;;;;2.85;1.35;;;;;20.00;101916.00;;;;13086316;22;20165;-74
2022/09/20 13:59:35;;;;;;;3.80;1.10;;;;;19.50;101905.00;;;;13085622;22;20160;-74
2022/09/20 14:04:38;;;;;;;5.15;1.20;;;;;19.50;101904.00;;;;13085731;22;20261;-75
2022/09/20 14:09:39;;;;;;;6.75;1.23;;;;;19.10;101896.00;;;;13085834;22;20262;-75
2022/09/20 14:14:41;;;;;;;2.10;0.98;;;;;19.20;101896.00;;;;13036172;22;20183;-74
2022/09/20 14:19:45;;;;;;;4.35;1.20;;;;;19.20;101886.00;;;;13037613;22;20658;-74
2022/09/20 14:24:59;;;;;;;9.57;1.40;;;;;19.20;101902.00;;;;13111305;22;20190;-74
2022/09/20 14:30:02;;;;;;;5.28;1.40;;;;;19.40;101898.00;;;;13057935;22;20196;-75
2022/09/20 14:35:15;;;;;;;2.83;0.98;;;;;19.40;101903.00;;;;13038715;22;20179;-74
2022/09/20 14:40:29;;;;;;;4.30;1.08;;;;;19.10;101898.00;;;;13012543;22;20607;-75
2022/09/20 14:45:40;;;;;;;3.40;1.25;;;;;18.50;101915.00;;;;13057195;22;20555;-74
2022/09/20 14:50:44;;;;;;;7.78;1.77;;;;;17.40;101909.00;;;;13071191;22;20163;-74
2022/09/20 14:56:07;;;;;;;3.53;1.20;;;;;16.90;101904.00;;;;13012442;22;20171;-75
2022/09/20 15:01:24;;;;;;;4.05;0.90;;;;;16.70;101901.00;;;;13036322;22;20511;-74
2022/09/20 15:06:26;;;;;;;6.57;1.42;;;;;16.50;101906.00;;;;13084129;22;20232;-74
2022/09/20 15:11:28;;;;;;;2.78;1.33;;;;;16.50;101909.00;;;;13006573;22;20193;-74
2022/09/20 15:16:29;;;;;;;4.10;1.13;;;;;16.70;101900.00;;;;13036919;22;20168;-74
2022/09/20 15:21:31;;;;;;;3.45;1.10;;;;;16.60;101909.00;;;;13083431;22;20163;-74
2022/09/20 15:26:33;;;;;;;4.38;1.40;;;;;16.80;101904.00;;;;13086419;22;20273;-74
2022/09/20 15:31:34;;;;;;;2.78;1.30;;;;;16.80;101905.00;;;;13037993;22;20178;-74
2022/09/20 15:36:35;;;;;;;3.42;1.38;;;;;16.60;101908.00;;;;13083450;22;20160;-74
2022/09/20 15:41:37;;;;;;;4.97;1.58;;;;;16.20;101902.00;;;;13058778;22;20224;-74
2022/09/20 15:46:40;;;;;;;6.75;2.10;;;;;15.90;101907.00;;;;13036105;22;20195;-74
2022/09/20 15:51:41;;;;;;;8.38;1.83;;;;;15.60;101904.00;;;;13013417;22;20163;-74
2022/09/20 15:56:42;;;;;;;6.63;1.67;;;;;15.40;101902.00;;;;13059572;22;20710;-74
2022/09/20 16:01:46;;;;;;;5.03;2.35;;;;;15.30;101900.00;;;;13034660;22;20163;-74
2022/09/20 16:06:49;;;;;;;6.15;3.80;;;;;15.30;101907.00;;;;13057519;22;20662;-74
2022/09/20 16:11:50;;;;;;;6.82;2.47;;;;;15.20;101902.00;;;;13083923;22;20187;-74
2022/09/20 16:16:51;;;;;;;1.95;1.10;;;;;15.20;101903.00;;;;13040522;22;20171;-74
2022/09/20 16:21:55;;;;;;;6.45;1.50;;;;;15.10;101914.00;;;;13012637;22;20182;-74
2022/09/20 16:27:02;;;;;;;4.18;1.60;;;;;15.00;101911.00;;;;13087700;22;20843;-74
2022/09/20 16:32:04;;;;;;;5.67;1.40;;;;;14.80;101913.00;;;;13012542;22;20171;-74
2022/09/20 16:37:10;;;;;;;4.07;1.60;;;;;14.60;101913.00;;;;13087591;22;20160;-74
2022/09/20 16:42:12;;;;;;;6.70;1.87;;;;;14.40;101922.00;;;;13062629;22;20701;-74
2022/09/20 16:47:24;;;;;;;4.80;1.83;;;;;14.20;101921.00;;;;13087238;22;20187;-74
2022/09/20 16:52:25;;;;;;;7.83;2.43;;;;;14.10;101921.00;;;;13039066;22;20250;-74
2022/09/20 16:57:26;;;;;;;8.88;2.15;;;;;13.90;101922.00;;;;13060107;22;20225;-74
2022/09/20 17:02:28;;;;;;;5.07;2.37;;;;;13.70;101929.00;;;;13085047;22;20234;-74
2022/09/20 17:07:29;;;;;;;6.60;2.37;;;;;13.60;101923.00;;;;13084995;22;20195;-74
2022/09/20 17:12:32;;;;;;;6.50;2.20;;;;;13.50;101928.00;;;;13063030;22;20170;-74
2022/09/20 17:17:33;;;;;;;7.03;2.60;;;;;13.30;101925.00;;;;13110165;22;20170;-74
2022/09/20 17:22:35;;;;;;;6.57;2.50;;;;;13.20;101928.00;;;;13033182;22;20502;-74
2022/09/20 17:27:38;;;;;;;9.03;2.50;;;;;13.00;101929.00;;;;13037388;22;20229;-74
2022/09/20 17:32:42;;;;;;;5.30;2.27;;;;;12.90;101932.00;;;;13060926;22;20176;-74
2022/09/20 17:37:43;;;;;;;5.97;2.67;;;;;12.70;101932.00;;;;13054248;22;20174;-74
2022/09/20 17:42:45;;;;;;;6.30;2.17;;;;;12.50;101929.00;;;;13037395;22;20167;-74
2022/09/20 17:47:46;;;;;;;6.10;2.73;;;;;12.40;101938.00;;;;13031677;22;20191;-74
2022/09/20 17:52:47;;;;;;;7.63;2.90;;;;;12.30;101936.00;;;;13062123;22;20254;-74
2022/09/20 17:57:51;;;;;;;6.23;2.70;;;;;12.10;101937.00;;;;13036140;22;20167;-74
2022/09/20 18:02:52;;;;;;;4.73;2.90;;;;;12.10;101943.00;;;;13083400;22;20234;-74
2022/09/20 18:07:53;;;;;;;9.00;3.30;;;;;12.00;101952.00;;;;13059358;22;20557;-74
2022/09/20 18:12:55;;;;;;;7.90;4.83;;;;;11.90;101949.00;;;;13035715;22;20182;-74
2022/09/20 18:17:58;;;;;;;8.87;3.93;;;;;11.70;101956.00;;;;13040104;22;20179;-74
2022/09/20 18:22:59;;;;;;;13.40;4.37;;;;;11.70;101964.00;;;;13012962;22;20790;-74
2022/09/20 18:28:00;;;;;;;4.33;3.43;;;;;11.60;101960.00;;;;13086346;22;20194;-74
2022/09/20 18:33:01;;;;;;;9.03;4.23;;;;;11.50;101965.00;;;;13061347;22;20178;-74
2022/09/20 18:38:05;;;;;;;9.53;3.80;;;;;11.40;101960.00;;;;13035800;22;20190;-74
2022/09/20 18:43:06;;;;;;;7.13;3.83;;;;;11.40;101970.00;;;;13035453;22;20618;-74
2022/09/20 18:48:08;;;;;;;12.20;5.13;;;;;11.30;101976.00;;;;13087581;22;20258;-74
2022/09/20 18:53:09;;;;;;;9.90;4.20;;;;;11.30;101974.00;;;;13086099;22;20218;-74
2022/09/20 18:58:10;;;;;;;8.27;4.20;;;;;11.30;101976.00;;;;13011666;22;20803;-74
2022/09/20 19:03:29;;;;;;;12.03;4.33;;;;;11.20;101991.00;;;;13038129;22;20171;-74
2022/09/20 19:08:37;;;;;;;5.20;4.63;;;;;11.20;101990.00;;;;13013743;22;20282;-74
2022/09/20 19:13:59;;;;;;;12.10;4.37;;;;;11.10;101992.00;;;;12988006;22;20171;-74
2022/09/20 19:19:47;;;;;;;12.17;4.83;;;;;10.90;101994.00;;;;13036762;22;20598;-74
2022/09/20 19:25:19;;;;;;;8.70;5.00;;;;;10.80;101999.00;;;;13085821;22;20187;-74
2022/09/20 19:30:22;;;;;;;8.40;4.57;;;;;10.70;102004.00;;;;13037131;22;20168;-74
2022/09/20 19:35:31;;;;;;;13.73;8.20;;;;;10.60;102009.00;;;;13007883;22;20176;-74
2022/09/20 19:40:45;;;;;;;15.07;8.70;;;;;10.60;102019.00;;;;13081144;22;20840;-74
2022/09/20 19:46:04;;;;;;;14.60;7.67;;;;;10.40;102023.00;;;;13035056;22;20261;-74
2022/09/20 19:51:10;;;;;;;14.50;8.10;;;;;10.30;102026.00;;;;13039199;22;20164;-74
2022/09/20 19:56:32;;;;;;;13.40;9.00;;;;;10.20;102029.00;;;;13085051;22;20163;-74
2022/09/20 20:01:34;;;;;;;10.97;6.73;;;;;10.10;102025.00;;;;13013305;22;20167;-73
2022/09/20 20:07:33;;;;;;;13.33;7.40;;;;;10.00;102035.00;;;;13013777;22;20195;-73
2022/09/20 20:13:02;;;;;;;9.57;6.50;;;;;9.90;102038.00;;;;12837769;22;20624;-73
2022/09/20 20:18:23;;;;;;;11.40;6.83;;;;;9.90;102043.00;;;;13012977;22;20179;-74
2022/09/20 20:24:07;;;;;;;9.57;6.47;;;;;9.80;102039.00;;;;13038740;22;20629;-74
2022/09/20 20:29:10;;;;;;;9.77;5.70;;;;;9.80;102046.00;;;;13058709;22;20187;-74
2022/09/20 20:34:15;;;;;;;12.23;6.40;;;;;9.70;102045.00;;;;13038869;22;20367;-74
2022/09/20 20:39:16;;;;;;;12.07;6.37;;;;;9.60;102046.00;;;;13085850;22;20176;-74
2022/09/20 20:44:19;;;;;;;14.57;6.47;;;;;9.60;102043.00;;;;13013995;22;20225;-74
2022/09/20 20:49:21;;;;;;;7.97;6.07;;;;;9.50;102052.00;;;;13010802;22;20224;-73
2022/09/20 20:54:22;;;;;;;10.60;5.63;;;;;9.50;102057.00;;;;13036139;22;20212;-73
2022/09/20 20:59:24;;;;;;;12.20;6.47;;;;;9.40;102058.00;;;;13033385;22;20163;-73
2022/09/20 21:04:27;;;;;;;9.73;6.50;;;;;9.40;102056.00;;;;13063471;22;20190;-73
2022/09/20 21:09:28;;;;;;;9.70;6.40;;;;;9.30;102065.00;;;;13038165;22;20202;-73
2022/09/20 21:14:32;;;;;;;11.50;5.63;;;;;9.30;102060.00;;;;13012329;22;20171;-73
2022/09/20 21:19:33;;;;;;;12.63;5.70;;;;;9.20;102055.00;;;;13009939;22;20186;-73
2022/09/20 21:24:34;;;;;;;21.07;8.13;;;;;9.20;102062.00;;;;13063850;22;20260;-73
2022/09/20 21:29:36;;;;;;;8.90;6.17;;;;;9.20;102068.00;;;;13034023;22;20159;-73
2022/09/20 21:34:37;;;;;;;11.80;6.17;;;;;9.20;102071.00;;;;13011844;22;20659;-73
2022/09/20 21:39:38;;;;;;;11.10;5.83;;;;;9.10;102072.00;;;;13037436;22;20615;-74
2022/09/20 21:44:42;;;;;;;10.17;6.20;;;;;9.00;102075.00;;;;13012223;22;20939;-74
2022/09/20 21:49:43;;;;;;;7.20;5.67;;;;;9.00;102073.00;;;;13037144;22;20195;-73
2022/09/20 21:54:45;;;;;;;9.63;5.90;;;;;8.90;102065.00;;;;13037366;22;20262;-74
2022/09/20 21:59:46;;;;;;;12.70;6.30;;;;;8.80;102073.00;;;;13085932;22;20659;-74
2022/09/20 22:04:48;;;;;;;8.17;5.97;;;;;8.70;102069.00;;;;13013884;22;20309;-74
2022/09/20 22:09:49;;;;;;;15.07;6.53;;;;;8.60;102076.00;;;;13085993;22;20266;-73
2022/09/20 22:14:50;;;;;;;11.50;6.20;;;;;8.60;102081.00;;;;13039631;22;20256;-74
2022/09/20 22:19:52;;;;;;;9.60;6.60;;;;;8.50;102085.00;;;;13014358;22;20502;-74
2022/09/20 22:24:54;;;;;;;10.60;6.33;;;;;8.40;102074.00;;;;13013442;22;20237;-74
2022/09/20 22:29:56;;;;;;;8.53;5.87;;;;;8.40;102078.00;;;;13012610;22;20179;-74
2022/09/20 22:35:02;;;;;;;10.27;6.37;;;;;8.40;102077.00;;;;13035551;22;20258;-74
2022/09/20 22:40:04;;;;;;;8.93;6.00;;;;;8.30;102081.00;;;;13038303;22;20199;-74
2022/09/20 22:45:06;;;;;;;10.10;6.77;;;;;8.20;102086.00;;;;13084553;22;20198;-74
2022/09/20 22:50:07;;;;;;;12.20;7.70;;;;;8.20;102087.00;;;;13039754;22;20173;-74
2022/09/20 22:55:09;;;;;;;14.60;8.10;;;;;8.10;102072.00;;;;13038465;22;20254;-74
2022/09/20 23:00:11;;;;;;;14.70;7.57;;;;;8.10;102085.00;;;;13039360;22;20176;-74
2022/09/20 23:05:12;;;;;;;13.63;8.10;;;;;8.10;102078.00;;;;13060056;22;20187;-74
2022/09/20 23:10:14;;;;;;;11.97;7.60;;;;;8.00;102087.00;;;;13037521;22;20806;-74
2022/09/20 23:15:16;;;;;;;12.47;7.73;;;;;8.00;102090.00;;;;13032498;22;20763;-74
2022/09/20 23:20:17;;;;;;;12.93;7.27;;;;;7.90;102083.00;;;;13039711;22;20175;-74
2022/09/20 23:25:19;;;;;;;9.83;6.50;;;;;7.90;102087.00;;;;13039676;22;20195;-74
2022/09/20 23:30:20;;;;;;;11.87;7.43;;;;;7.80;102081.00;;;;13088113;22;20171;-74
2022/09/20 23:35:21;;;;;;;13.93;7.50;;;;;7.80;102084.00;;;;13014894;22;20206;-74
2022/09/20 23:40:22;;;;;;;9.87;7.27;;;;;7.80;102091.00;;;;13061230;22;20166;-74
2022/09/20 23:45:24;;;;;;;11.33;7.33;;;;;7.70;102089.00;;;;13040024;22;20205;-74
2022/09/20 23:50:25;;;;;;;15.03;8.77;;;;;7.70;102084.00;;;;12990960;22;20179;-74
2022/09/20 23:55:27;;;;;;;11.83;8.30;;;;;7.60;102082.00;;;;13040135;22;20228;-74
